Flugwetter

METAR EDDW
2020/10/30 07:50 EDDW 300750Z 24011KT 7000 -DZ SCT009 BKN012 13/13 Q1013 TEMPO 4500 BKN009
TAF EDDW
2020/10/30 06:27 TAF EDDW 300500Z 3006/3106 24011KT 6000 BKN010 TEMPO 3006/3105 4000 DZRA BKN008 PROB40 TEMPO 3006/3014 SCT009 BKN015 PROB30 TEMPO 3010/3013 25015G25KT PROB30 TEMPO 3016/3103 2500 BKN004 BECMG 3019/3021 23006KT
METAR EDDH
2020/10/30 07:50 EDDH 300750Z 24009KT 4900 -RADZ FEW004 SCT005 BKN007 13/13 Q1011 TEMPO 7000 BKN004
TAF EDDH
2020/10/30 06:27 TAF EDDH 300500Z 3006/3112 25010KT 7000 BKN007 TEMPO 3006/3021 4000 DZRA TEMPO 3006/3009 BKN004 PROB30 TEMPO 3006/3008 2500 PROB30 TEMPO 3011/3017 SCT008 BKN012 BECMG 3018/3020 23005KT TEMPO 3021/3109 2500 -DZ BKN004 BECMG 3100/3102 4500 BR BECMG 3109/3111 8000 BKN012
METAR VRMM
2020/10/28 18:00 VRMM 281800Z 30012KT 9999 FEW018TCU BKN120 28/24 Q1012 TEMPO 5000 -SHRA
TAF VRMM
2020/10/30 06:09 TAF VRMM 300500Z 3006/3112 31011KT 9999 FEW018 TEMPO 3009/3015 4000 TSRA FEW017CB

Quelle:

Bereitgestellt von den Servern der NOAA tgftp.nws.noaa.gov
Alle Angaben ohne Gewähr